Terminal Aerodrome Forecast
Issued by NWS Cleveland, OH

Home | Current Version | Previous Version | Graphics & Text | Print | Product List | Glossary Off
Versions: 1 2 3 4 5 6 7 8 9 10 11 12 13 14 15 16 17 18 19 20 21 22 23 24 25 26

892
FTUS41 KCLE 021126
TAFMFD
TAF
KMFD 021126Z 0212/0312 00000KT P6SM OVC035
     FM021300 34008KT P6SM OVC007
     FM021600 35008KT P6SM OVC015
     FM022200 36007KT P6SM OVC035
     FM030600 VRB03KT P6SM OVC035=

USA.gov is the U.S. government's official web portal to all federal, state and local government web resources and services.